createdAt,value
2022-08-28T00:00:56.406Z,27.37
2022-08-28T00:05:59.944Z,27.39
2022-08-28T00:11:04.468Z,27.35
2022-08-28T00:16:07.908Z,27.35
2022-08-28T00:21:11.130Z,27.35
2022-08-28T00:26:35.634Z,27.33
2022-08-28T00:31:39.652Z,27.33
2022-08-28T00:36:42.454Z,27.33
2022-08-28T00:41:46.588Z,27.29
2022-08-28T00:46:51.569Z,27.24
2022-08-28T00:52:15.265Z,27.17
2022-08-28T00:57:27.082Z,27.25
2022-08-28T01:02:31.832Z,27.24
2022-08-28T01:07:34.910Z,27.24
2022-08-28T01:12:39.850Z,27.21
2022-08-28T01:17:47.285Z,27.18
2022-08-28T01:22:59.109Z,27.18
2022-08-28T01:28:07.391Z,27.17
2022-08-28T01:33:10.245Z,27.16
2022-08-28T01:38:17.615Z,27.15
2022-08-28T01:43:26.725Z,27.14
2022-08-28T01:48:31.919Z,27.14
2022-08-28T01:53:34.714Z,27.12
2022-08-28T01:58:39.307Z,27.11
2022-08-28T02:03:43.073Z,27.08
2022-08-28T02:08:46.636Z,27.03
2022-08-28T02:13:52.028Z,27.00
2022-08-28T02:18:57.143Z,26.97
2022-08-28T02:23:59.863Z,26.95
2022-08-28T02:29:04.809Z,26.89
2022-08-28T02:34:07.844Z,26.87
2022-08-28T02:39:10.960Z,26.85
2022-08-28T02:44:14.973Z,26.82
2022-08-28T02:49:17.652Z,26.80
2022-08-28T02:54:21.117Z,26.77
2022-08-28T02:59:25.727Z,26.76
2022-08-28T03:04:28.856Z,26.72
2022-08-28T03:09:31.778Z,26.68
2022-08-28T03:14:35.951Z,26.68
2022-08-28T03:19:38.664Z,26.64
2022-08-28T03:24:41.373Z,26.63
2022-08-28T03:29:45.493Z,26.59
2022-08-28T03:34:48.395Z,26.57
2022-08-28T03:39:51.164Z,26.54
2022-08-28T03:44:55.256Z,26.52
2022-08-28T03:49:58.832Z,26.50
2022-08-28T03:55:01.860Z,26.49
2022-08-28T04:00:09.508Z,26.47
2022-08-28T04:05:15.715Z,26.45
2022-08-28T04:10:18.611Z,26.43
2022-08-28T04:15:23.202Z,26.41
2022-08-28T04:20:26.395Z,26.38
2022-08-28T04:25:29.098Z,26.37
2022-08-28T04:30:33.151Z,26.34
2022-08-28T04:35:35.867Z,26.32
2022-08-28T04:40:40.418Z,26.30
2022-08-28T04:45:46.320Z,26.30
2022-08-28T04:50:50.335Z,26.27
2022-08-28T04:55:55.223Z,26.27
2022-08-28T05:00:59.719Z,26.26
2022-08-28T05:06:04.092Z,26.23
2022-08-28T05:11:33.695Z,26.21
2022-08-28T05:16:44.116Z,26.21
2022-08-28T05:21:47.855Z,26.20
2022-08-28T05:26:50.603Z,26.20
2022-08-28T05:31:54.843Z,26.19
2022-08-28T05:36:58.055Z,26.19
2022-08-28T05:42:00.996Z,26.17
2022-08-28T05:47:05.232Z,26.17
2022-08-28T05:52:07.908Z,26.15
2022-08-28T05:57:10.970Z,26.14
2022-08-28T06:02:15.206Z,26.13
2022-08-28T06:07:19.339Z,26.13
2022-08-28T06:12:23.536Z,26.10
2022-08-28T06:17:27.712Z,26.08
2022-08-28T06:22:30.649Z,26.07
2022-08-28T06:27:34.171Z,26.06
2022-08-28T06:32:38.656Z,26.05
2022-08-28T06:37:41.495Z,26.05
2022-08-28T06:42:44.367Z,26.05
2022-08-28T06:47:49.575Z,26.05
2022-08-28T06:52:56.008Z,26.06
2022-08-28T06:57:58.694Z,26.05
2022-08-28T07:03:04.790Z,26.09
2022-08-28T07:08:07.459Z,26.02
2022-08-28T07:13:10.110Z,25.22
2022-08-28T07:18:14.455Z,24.64
2022-08-28T07:23:17.266Z,24.49
2022-08-28T07:28:20.029Z,24.78
2022-08-28T07:33:24.366Z,25.08
2022-08-28T07:38:27.732Z,25.23
2022-08-28T07:43:47.775Z,25.29
2022-08-28T07:48:53.532Z,25.34
2022-08-28T07:53:57.854Z,25.38
2022-08-28T07:59:03.312Z,25.39
2022-08-28T08:04:08.368Z,25.40
2022-08-28T08:09:13.449Z,25.40
2022-08-28T08:14:18.183Z,25.41
2022-08-28T08:19:22.410Z,25.43
2022-08-28T08:24:26.836Z,25.44
2022-08-28T08:29:32.226Z,25.45
2022-08-28T08:34:39.767Z,25.44
2022-08-28T08:39:43.976Z,25.47
2022-08-28T08:44:49.172Z,25.52
2022-08-28T08:50:03.498Z,25.52
2022-08-28T08:55:16.703Z,25.55
2022-08-28T09:00:21.283Z,25.56
2022-08-28T09:05:35.117Z,25.57
2022-08-28T09:10:42.229Z,25.61
2022-08-28T09:15:50.636Z,25.61
2022-08-28T09:20:56.654Z,25.62
2022-08-28T09:26:02.352Z,25.65
2022-08-28T09:31:08.390Z,25.65
2022-08-28T09:36:32.307Z,25.66
2022-08-28T09:41:57.159Z,25.69
2022-08-28T09:46:59.995Z,25.69
2022-08-28T09:52:23.149Z,25.72
2022-08-28T09:57:28.121Z,25.71
2022-08-28T10:02:41.702Z,25.79
2022-08-28T10:07:52.291Z,25.76
2022-08-28T10:13:10.379Z,25.77
2022-08-28T10:18:35.542Z,25.80
2022-08-28T10:23:55.761Z,25.80
2022-08-28T10:29:10.878Z,25.87
2022-08-28T10:34:32.742Z,25.90
2022-08-28T10:39:49.499Z,25.91
2022-08-28T10:44:57.937Z,25.97
2022-08-28T10:50:09.852Z,26.02
2022-08-28T10:55:19.861Z,25.61
2022-08-28T11:00:26.374Z,25.15
2022-08-28T11:05:34.621Z,24.94
2022-08-28T11:10:49.197Z,24.59
2022-08-28T11:15:54.689Z,24.31
2022-08-28T11:21:05.038Z,24.35
2022-08-28T11:26:12.757Z,24.26
2022-08-28T11:31:35.450Z,24.22
2022-08-28T11:37:00.265Z,24.04
2022-08-28T11:42:36.441Z,24.07
2022-08-28T11:47:52.258Z,24.07
2022-08-28T11:53:34.369Z,24.06
2022-08-28T11:58:45.538Z,24.17
2022-08-28T12:03:57.559Z,24.17
2022-08-28T12:09:04.935Z,24.23
2022-08-28T12:14:10.170Z,24.40
2022-08-28T12:19:28.715Z,24.42
2022-08-28T12:24:31.437Z,24.57
2022-08-28T12:29:44.949Z,24.75
2022-08-28T12:34:54.016Z,24.82
2022-08-28T12:40:02.939Z,24.87
2022-08-28T12:45:11.091Z,24.99
2022-08-28T12:50:30.844Z,25.18
2022-08-28T12:55:34.489Z,25.25
2022-08-28T13:00:50.808Z,25.35
2022-08-28T13:06:01.258Z,25.45
2022-08-28T13:11:04.957Z,25.54
2022-08-28T13:16:10.614Z,25.81
2022-08-28T13:21:34.305Z,26.02
2022-08-28T13:26:38.497Z,26.12
2022-08-28T13:31:43.231Z,26.35
2022-08-28T13:36:49.086Z,26.40
2022-08-28T13:41:56.255Z,26.43
2022-08-28T13:47:01.887Z,26.53
2022-08-28T13:52:07.475Z,26.70
2022-08-28T13:57:13.431Z,26.77
2022-08-28T14:02:35.482Z,26.88
2022-08-28T14:07:39.322Z,26.90
2022-08-28T14:12:43.121Z,27.00
2022-08-28T14:17:47.165Z,27.00
2022-08-28T14:22:49.888Z,27.02
2022-08-28T14:27:52.548Z,27.25
2022-08-28T14:32:57.356Z,27.24
2022-08-28T14:38:00.070Z,27.33
2022-08-28T14:43:02.842Z,27.26
2022-08-28T14:48:07.233Z,27.40
2022-08-28T14:53:10.941Z,27.47
2022-08-28T14:58:14.804Z,27.49
2022-08-28T15:03:20.723Z,27.57
2022-08-28T15:08:23.639Z,27.64
2022-08-28T15:13:26.440Z,27.75
2022-08-28T15:18:36.003Z,27.68
2022-08-28T15:23:38.759Z,27.87
2022-08-28T15:28:45.968Z,27.87
2022-08-28T15:33:50.125Z,27.90
2022-08-28T15:39:10.860Z,27.96
2022-08-28T15:44:15.105Z,28.05
2022-08-28T15:49:20.801Z,28.01
2022-08-28T15:54:27.503Z,28.07
2022-08-28T15:59:47.882Z,28.09
2022-08-28T16:04:55.578Z,28.13
2022-08-28T16:09:58.413Z,28.07
2022-08-28T16:15:01.178Z,28.03
2022-08-28T16:20:06.397Z,28.16
2022-08-28T16:25:15.076Z,28.19
2022-08-28T16:30:18.469Z,28.17
2022-08-28T16:35:23.492Z,28.21
2022-08-28T16:40:26.211Z,28.29
2022-08-28T16:45:29.595Z,28.20
2022-08-28T16:50:33.987Z,28.21
2022-08-28T16:55:38.353Z,28.32
2022-08-28T17:00:52.273Z,28.26
2022-08-28T17:06:02.964Z,28.39
2022-08-28T17:11:06.653Z,28.42
2022-08-28T17:16:10.442Z,28.41
2022-08-28T17:21:32.215Z,28.30
2022-08-28T17:26:35.321Z,28.31
2022-08-28T17:31:38.752Z,28.28
2022-08-28T17:36:43.327Z,28.32
2022-08-28T17:41:46.563Z,28.28
2022-08-28T17:46:49.318Z,27.97
2022-08-28T17:51:53.429Z,27.78
2022-08-28T17:56:56.825Z,27.53
2022-08-28T18:01:59.888Z,27.57
2022-08-28T18:07:04.233Z,27.79
2022-08-28T18:12:12.206Z,27.79
2022-08-28T18:17:16.155Z,27.87
2022-08-28T18:22:20.335Z,27.97
2022-08-28T18:27:23.702Z,27.92
2022-08-28T18:32:26.705Z,28.02
2022-08-28T18:37:30.738Z,28.05
2022-08-28T18:42:33.950Z,28.07
2022-08-28T18:47:37.251Z,27.97
2022-08-28T18:52:41.845Z,28.08
2022-08-28T18:57:44.888Z,28.03
2022-08-28T19:02:49.739Z,27.96
2022-08-28T19:07:54.050Z,28.01
2022-08-28T19:12:56.966Z,28.01
2022-08-28T19:18:00.438Z,28.03
2022-08-28T19:23:04.618Z,28.01
2022-08-28T19:28:07.523Z,28.02
2022-08-28T19:33:12.480Z,28.02
2022-08-28T19:38:17.873Z,28.01
2022-08-28T19:43:20.664Z,28.07
2022-08-28T19:48:23.485Z,28.02
2022-08-28T19:53:27.593Z,28.06
2022-08-28T19:58:30.263Z,27.93
2022-08-28T20:03:34.069Z,27.93
2022-08-28T20:08:38.105Z,28.03
2022-08-28T20:13:41.612Z,28.06
2022-08-28T20:18:44.325Z,28.00
2022-08-28T20:23:48.535Z,28.00
2022-08-28T20:28:52.616Z,28.02
2022-08-28T20:33:55.404Z,28.01
2022-08-28T20:38:59.996Z,27.97
2022-08-28T20:44:04.972Z,28.03
2022-08-28T20:49:08.047Z,28.00
2022-08-28T20:54:12.828Z,27.92
2022-08-28T20:59:15.820Z,27.82
2022-08-28T21:04:18.977Z,27.76
2022-08-28T21:09:33.462Z,27.66
2022-08-28T21:14:51.478Z,27.62
2022-08-28T21:19:54.625Z,27.57
2022-08-28T21:24:59.941Z,27.52
2022-08-28T21:30:03.340Z,27.54
2022-08-28T21:35:09.429Z,27.58
2022-08-28T21:40:16.608Z,27.56
2022-08-28T21:45:20.048Z,27.51
2022-08-28T21:50:23.119Z,27.48
2022-08-28T21:55:27.190Z,27.46
2022-08-28T22:00:30.513Z,27.58
2022-08-28T22:05:33.290Z,27.61
2022-08-28T22:10:40.435Z,27.60
2022-08-28T22:15:45.526Z,27.59
2022-08-28T22:21:05.910Z,27.55
2022-08-28T22:26:12.318Z,27.51
2022-08-28T22:31:15.521Z,27.48
2022-08-28T22:36:22.228Z,27.42
2022-08-28T22:41:27.612Z,27.40
2022-08-28T22:46:30.420Z,27.35
2022-08-28T22:51:35.212Z,27.33
2022-08-28T22:56:39.217Z,27.28
2022-08-28T23:01:43.564Z,27.24
2022-08-28T23:06:46.272Z,27.19
2022-08-28T23:11:50.429Z,27.15
2022-08-28T23:16:54.958Z,27.12
2022-08-28T23:21:57.731Z,27.06
2022-08-28T23:27:19.384Z,27.00
2022-08-28T23:32:24.431Z,26.98
2022-08-28T23:37:27.433Z,26.94
2022-08-28T23:42:31.629Z,26.89
2022-08-28T23:47:34.735Z,26.85
2022-08-28T23:52:44.283Z,26.83
2022-08-28T23:57:52.347Z,26.78
